»·PEaware :: N314TW EGBB-LSGG

N314TW :: EGBB-LSGG

FLIGHT INFORMATION

Flight Status: Arrived
Operator: Privately registered:
United States
More flights under this callsign
Pilot: Timothy W. (9658)
Aircraft: ECLIPSE 500
(EA50)
More flights by this aircraft type
Origin: EGBB Birmingham
United Kingdom
Destination: LSGG Geneva
Switzerland
More flights between these airports :: More routes between these airports
Route: COWLY L612 MID UL612 RESMI/N0299F270 UM975 PIBAT/N0279F230 UM975 LUSAR
File this flight plan on PilotEdge
Remarks:
Altitude:
(Current/Filed)
35,000ft
Speed:
(Current/Filed)
321kts
Departed: 17-Apr-17 08:15 AM
Arrived: 17-Apr-17 09:59 AM
Distance/Time
Traveled:
482nm/1:44
Distance/Time
To Go:
Arrived

Flight Plot

Page will automatically refresh every two minutes.


Map Options




Map Legend


Flown Route
Filed Route
Departure Airport
Arrival Airport
Navaid (VOR, NDB)
Fix

Horizontal Profiles

Position Reports

Time Latitude Longitude Heading Altitude Ground
Speed
17-Apr-17 07:46 52.450813 -1.749503 144 330ft 0kts
17-Apr-17 07:47 52.450813 -1.749503 144 330ft 0kts
17-Apr-17 07:48 52.450813 -1.749503 144 330ft 0kts
17-Apr-17 07:49 52.450813 -1.749503 144 330ft 0kts
17-Apr-17 07:50 52.450813 -1.749503 144 330ft 0kts
17-Apr-17 07:51 52.450813 -1.749503 144 330ft 0kts
17-Apr-17 07:52 52.450813 -1.749503 144 330ft 0kts
17-Apr-17 07:53 52.450584 -1.748680 113 330ft 5kts
17-Apr-17 07:54 52.449890 -1.746563 102 330ft 0kts
17-Apr-17 07:55 52.449890 -1.746563 102 330ft 0kts
17-Apr-17 07:56 52.449791 -1.745821 102 330ft 6kts
17-Apr-17 07:57 52.449803 -1.740397 73 330ft 17kts
17-Apr-17 07:58 52.452617 -1.741292 328 330ft 18kts
17-Apr-17 07:59 52.454087 -1.743582 299 330ft 0kts
17-Apr-17 08:00 52.454087 -1.743582 299 330ft 0kts
17-Apr-17 08:01 52.454938 -1.745760 317 330ft 12kts
17-Apr-17 08:02 52.457125 -1.748380 325 330ft 14kts
17-Apr-17 08:03 52.461238 -1.752998 325 330ft 12kts
17-Apr-17 08:04 52.461522 -1.753319 325 330ft 0kts
17-Apr-17 08:05 52.461522 -1.753319 325 330ft 0kts
17-Apr-17 08:06 52.462364 -1.754272 325 330ft 10kts
17-Apr-17 08:07 52.465365 -1.757518 324 330ft 5kts
17-Apr-17 08:08 52.465487 -1.757663 324 330ft 3kts
17-Apr-17 08:09 52.466028 -1.758305 324 330ft 0kts
17-Apr-17 08:10 52.466215 -1.758544 312 330ft 5kts
17-Apr-17 08:11 52.466245 -1.759330 237 330ft 0kts
17-Apr-17 08:12 52.466245 -1.759330 237 330ft 0kts
17-Apr-17 08:13 52.465262 -1.760715 145 330ft 0kts
17-Apr-17 08:14 52.465262 -1.760715 145 330ft 0kts
17-Apr-17 08:15 52.465262 -1.760715 145 330ft 0kts
17-Apr-17 08:16 52.460224 -1.755016 145 330ft 103kts
17-Apr-17 08:17 52.426028 -1.717024 145 1904ft 185kts
17-Apr-17 08:18 52.373689 -1.683474 152 3962ft 225kts
17-Apr-17 08:19 52.319443 -1.631888 145 6215ft 239kts
17-Apr-17 08:20 52.262749 -1.572938 145 8286ft 253kts
17-Apr-17 08:21 52.198485 -1.520004 152 10138ft 268kts
17-Apr-17 08:22 52.129931 -1.465689 154 11842ft 281kts
17-Apr-17 08:23 52.058905 -1.409808 154 13460ft 290kts
17-Apr-17 08:24 51.986071 -1.352619 154 14936ft 298kts
17-Apr-17 08:25 51.910454 -1.293410 154 16303ft 306kts
17-Apr-17 08:26 51.832936 -1.232926 154 17561ft 313kts
17-Apr-17 08:27 51.754877 -1.172252 154 18706ft 320kts
17-Apr-17 08:28 51.675208 -1.110563 154 19766ft 326kts
17-Apr-17 08:29 51.596059 -1.043207 143 21321ft 307kts
17-Apr-17 08:30 51.527808 -0.965008 143 22674ft 305kts
17-Apr-17 08:31 51.459680 -0.887303 144 23987ft 299kts
17-Apr-17 08:32 51.386584 -0.836226 160 25018ft 298kts
17-Apr-17 08:33 51.309856 -0.786819 160 26032ft 298kts
17-Apr-17 08:34 51.233011 -0.737879 159 26900ft 301kts
17-Apr-17 08:35 51.156291 -0.689115 159 27843ft 300kts
17-Apr-17 08:36 51.080138 -0.640936 159 28870ft 291kts
17-Apr-17 08:37 51.009858 -0.577315 144 29629ft 293kts
17-Apr-17 08:38 50.942834 -0.505983 145 30456ft 290kts
17-Apr-17 08:39 50.876449 -0.435512 145 31269ft 286kts
17-Apr-17 08:40 50.809976 -0.365249 145 31897ft 290kts
17-Apr-17 08:41 50.743868 -0.295544 145 32497ft 293kts
17-Apr-17 08:42 50.676086 -0.224498 146 33082ft 296kts
17-Apr-17 08:43 50.607468 -0.152805 145 33648ft 299kts
17-Apr-17 08:44 50.537834 -0.080097 145 34202ft 302kts
17-Apr-17 08:45 50.467780 -0.007155 145 34744ft 305kts
17-Apr-17 08:46 50.414052 0.048369 145 35104ft 306kts
17-Apr-17 08:47 50.342995 0.121954 146 35259ft 319kts
17-Apr-17 08:48 50.267489 0.200509 146 35259ft 335kts
17-Apr-17 08:49 50.188207 0.282002 146 35260ft 350kts
17-Apr-17 08:50 50.105712 0.366650 146 35262ft 362kts
17-Apr-17 08:51 50.020479 0.453837 146 35263ft 373kts
17-Apr-17 08:52 49.932870 0.543086 146 35259ft 382kts
17-Apr-17 08:53 49.844481 0.635068 139 35252ft 388kts
17-Apr-17 08:54 49.760393 0.741048 139 35241ft 394kts
17-Apr-17 08:55 49.675109 0.847977 139 35242ft 399kts
17-Apr-17 08:56 49.588632 0.955869 139 35244ft 403kts
17-Apr-17 08:57 49.501150 1.064513 139 35246ft 407kts
17-Apr-17 08:58 49.415122 1.171918 140 35228ft 410kts
17-Apr-17 08:59 49.327795 1.279103 140 35229ft 410kts
17-Apr-17 09:00 49.238915 1.387888 140 35227ft 411kts
17-Apr-17 09:01 49.152025 1.493776 140 35213ft 413kts
17-Apr-17 09:02 49.062984 1.601946 141 35209ft 411kts
17-Apr-17 09:04 48.974751 1.708535 142 35211ft 405kts
17-Apr-17 09:05 48.887049 1.813820 143 35212ft 404kts
17-Apr-17 09:06 48.801147 1.916564 143 35214ft 404kts
17-Apr-17 09:07 48.713233 2.021265 143 35216ft 404kts
17-Apr-17 09:08 48.625914 2.125157 143 35211ft 404kts
17-Apr-17 09:09 48.546895 2.242372 124 34781ft 406kts
17-Apr-17 09:10 48.483697 2.378323 123 33609ft 394kts
17-Apr-17 09:11 48.421515 2.512937 123 32425ft 395kts
17-Apr-17 09:12 48.359248 2.647334 123 31214ft 394kts
17-Apr-17 09:13 48.296997 2.781074 123 30014ft 400kts
17-Apr-17 09:14 48.217319 2.893116 143 28811ft 392kts
17-Apr-17 09:15 48.131635 2.991970 143 27630ft 400kts
17-Apr-17 09:16 48.035737 3.077141 159 27213ft 402kts
17-Apr-17 09:17 47.933777 3.142372 160 27196ft 404kts
17-Apr-17 09:18 47.830861 3.207362 160 27174ft 405kts
17-Apr-17 09:19 47.727284 3.272094 160 27177ft 405kts
17-Apr-17 09:20 47.623821 3.336405 161 27184ft 405kts
17-Apr-17 09:21 47.520434 3.400245 161 27037ft 410kts
17-Apr-17 09:22 47.415898 3.464378 160 25867ft 415kts
17-Apr-17 09:23 47.310667 3.528945 160 25181ft 409kts
17-Apr-17 09:24 47.206132 3.592822 160 25180ft 405kts
17-Apr-17 09:25 47.102859 3.655659 160 25179ft 404kts
17-Apr-17 09:26 46.999339 3.718389 160 25171ft 404kts
17-Apr-17 09:27 46.922980 3.827112 110 25162ft 403kts
17-Apr-17 09:28 46.881178 3.977998 108 25159ft 402kts
17-Apr-17 09:29 46.840650 4.129311 108 25155ft 402kts
17-Apr-17 09:30 46.803307 4.281441 98 24865ft 403kts
17-Apr-17 09:31 46.779822 4.440113 98 23667ft 395kts
17-Apr-17 09:32 46.757086 4.594494 98 22705ft 388kts
17-Apr-17 09:33 46.734464 4.746945 98 22027ft 384kts
17-Apr-17 09:34 46.711862 4.897749 97 21354ft 378kts
17-Apr-17 09:35 46.689562 5.045372 97 20690ft 373kts
17-Apr-17 09:36 46.667662 5.190937 99 19983ft 370kts
17-Apr-17 09:37 46.645421 5.334544 98 19097ft 363kts
17-Apr-17 09:38 46.623893 5.476407 98 18161ft 357kts
17-Apr-17 09:39 46.602219 5.614289 99 16156ft 343kts
17-Apr-17 09:40 46.581508 5.746158 99 14321ft 330kts
17-Apr-17 09:41 46.536831 5.854700 148 13065ft 329kts
17-Apr-17 09:42 46.461713 5.925324 146 11400ft 318kts
17-Apr-17 09:43 46.389726 5.996187 145 9798ft 308kts
17-Apr-17 09:44 46.332222 6.021163 207 8641ft 290kts
17-Apr-17 09:45 46.279356 5.957009 225 7312ft 277kts
17-Apr-17 09:45 46.244731 5.909390 226 7003ft 274kts
17-Apr-17 09:47 46.213967 5.866033 227 6999ft 277kts
17-Apr-17 09:47 46.183728 5.822857 228 7000ft 275kts
17-Apr-17 09:48 46.131974 5.748607 228 6998ft 239kts
17-Apr-17 09:50 46.076307 5.669429 228 7008ft 242kts
17-Apr-17 09:50 46.041149 5.620372 228 7005ft 195kts
17-Apr-17 09:52 45.997146 5.634350 78 7000ft 210kts
17-Apr-17 09:52 46.005819 5.703204 75 6993ft 212kts
17-Apr-17 09:54 46.022646 5.797777 68 6992ft 210kts
17-Apr-17 09:54 46.054385 5.846118 37 6292ft 197kts
17-Apr-17 09:55 46.093834 5.900283 39 5195ft 196kts
17-Apr-17 09:56 46.132218 5.955072 40 4102ft 194kts
17-Apr-17 09:57 46.167047 6.005537 41 3112ft 190kts
17-Apr-17 09:59 46.204395 6.059978 41 2060ft 138kts
17-Apr-17 09:59 46.222107 6.085802 40 1575ft 95kts
17-Apr-17 10:00 46.235867 6.105473 46 1379ft 26kts
17-Apr-17 10:01 46.236222 6.106829 110 1379ft 0kts
17-Apr-17 10:02 46.235546 6.107115 196 1378ft 0kts
17-Apr-17 10:03 46.235546 6.107115 196 1378ft 0kts
17-Apr-17 10:04 46.235546 6.107115 196 1378ft 0kts
17-Apr-17 10:05 46.235197 6.107387 127 1378ft 7kts
17-Apr-17 10:06 46.237826 6.110832 349 1378ft 15kts
17-Apr-17 10:07 46.240396 6.107160 304 1379ft 7kts
17-Apr-17 10:08 46.237771 6.102962 226 1378ft 23kts
17-Apr-17 10:09 46.236918 6.101721 226 1379ft 0kts
17-Apr-17 10:10 46.236918 6.101721 226 1379ft 0kts
17-Apr-17 10:11 46.236413 6.099946 226 1379ft 13kts
17-Apr-17 10:12 46.236556 6.099285 51 1378ft 0kts

Navigation Log

Ident Type
Flight plan parsing failed, navigation log unavailable